createdAt,value
2023-01-06T00:01:10.756Z,1.10
2023-01-06T00:03:38.292Z,1.73
2023-01-06T00:06:07.364Z,1.60
2023-01-06T00:08:35.614Z,1.23
2023-01-06T00:11:07.832Z,1.02
2023-01-06T00:13:34.992Z,1.40
2023-01-06T00:16:13.829Z,1.10
2023-01-06T00:18:41.651Z,1.35
2023-01-06T00:21:10.899Z,2.00
2023-01-06T00:23:38.429Z,1.30
2023-01-06T00:26:07.382Z,1.40
2023-01-06T00:28:35.561Z,1.08
2023-01-06T00:31:12.019Z,1.98
2023-01-06T00:33:39.300Z,1.50
2023-01-06T00:36:08.580Z,1.65
2023-01-06T00:38:37.390Z,1.63
2023-01-06T00:41:26.561Z,1.75
2023-01-06T00:43:53.754Z,1.48
2023-01-06T00:46:21.274Z,1.33
2023-01-06T00:49:03.967Z,1.45
2023-01-06T00:51:32.525Z,1.38
2023-01-06T00:54:00.288Z,1.85
2023-01-06T00:56:27.366Z,1.40
2023-01-06T00:58:54.549Z,1.98
2023-01-06T01:01:21.715Z,1.52
2023-01-06T01:03:48.804Z,1.30
2023-01-06T01:06:16.879Z,1.60
2023-01-06T01:08:44.056Z,1.52
2023-01-06T01:11:32.877Z,1.63
2023-01-06T01:14:00.018Z,1.55
2023-01-06T01:16:27.106Z,2.38
2023-01-06T01:18:54.332Z,2.20
2023-01-06T01:21:21.378Z,2.22
2023-01-06T01:23:48.484Z,2.10
2023-01-06T01:26:15.727Z,2.20
2023-01-06T01:28:42.785Z,1.90
2023-01-06T01:31:10.513Z,2.25
2023-01-06T01:33:38.420Z,1.67
2023-01-06T01:36:10.906Z,1.80
2023-01-06T01:38:38.261Z,2.88
2023-01-06T01:41:05.965Z,2.08
2023-01-06T01:43:53.359Z,1.67
2023-01-06T01:46:26.423Z,1.38
2023-01-06T01:48:57.315Z,1.70
2023-01-06T01:51:33.810Z,1.48
2023-01-06T01:54:06.799Z,1.45
2023-01-06T01:56:36.186Z,2.03
2023-01-06T01:59:14.594Z,1.38
2023-01-06T02:01:41.748Z,2.20
2023-01-06T02:04:10.463Z,1.55
2023-01-06T02:06:37.841Z,1.60
2023-01-06T02:09:20.317Z,1.95
2023-01-06T02:11:51.632Z,1.80
2023-01-06T02:14:21.751Z,1.63
2023-01-06T02:17:13.115Z,1.55
2023-01-06T02:20:15.794Z,2.08
2023-01-06T02:23:04.018Z,1.83
2023-01-06T02:25:46.127Z,1.98
2023-01-06T02:28:28.428Z,2.10
2023-01-06T02:31:14.267Z,1.90
2023-01-06T02:34:04.809Z,2.15
2023-01-06T02:37:09.135Z,1.98
2023-01-06T02:39:48.111Z,2.10
2023-01-06T02:42:46.233Z,1.70
2023-01-06T02:45:25.840Z,1.88
2023-01-06T02:48:05.537Z,1.98
2023-01-06T02:50:46.413Z,2.10
2023-01-06T02:53:19.261Z,1.52
2023-01-06T02:55:53.119Z,1.63
2023-01-06T02:58:20.122Z,2.00
2023-01-06T03:00:52.315Z,2.47
2023-01-06T03:03:23.260Z,2.35
2023-01-06T03:05:54.837Z,2.05
2023-01-06T03:08:29.175Z,2.22
2023-01-06T03:10:58.088Z,2.58
2023-01-06T03:13:47.440Z,2.65
2023-01-06T03:16:15.615Z,1.80
2023-01-06T03:18:45.314Z,2.00
2023-01-06T03:21:20.386Z,2.33
2023-01-06T03:23:47.665Z,2.30
2023-01-06T03:26:15.448Z,1.75
2023-01-06T03:28:42.486Z,2.40
2023-01-06T03:31:26.555Z,2.20
2023-01-06T03:34:11.626Z,2.10
2023-01-06T03:36:55.097Z,2.17
2023-01-06T03:39:30.985Z,2.08
2023-01-06T03:42:35.824Z,1.90
2023-01-06T03:45:29.949Z,2.22
2023-01-06T03:48:07.998Z,2.58
2023-01-06T03:50:53.029Z,2.00
2023-01-06T03:53:44.531Z,2.13
2023-01-06T03:56:20.535Z,2.20
2023-01-06T03:58:53.772Z,1.65
2023-01-06T04:01:23.893Z,2.22
2023-01-06T04:03:55.606Z,1.88
2023-01-06T04:06:23.758Z,2.25
2023-01-06T04:08:50.795Z,2.00
2023-01-06T04:11:36.505Z,2.20
2023-01-06T04:14:03.553Z,1.88
2023-01-06T04:16:30.859Z,1.50
2023-01-06T04:18:57.876Z,1.80
2023-01-06T04:21:24.945Z,1.75
2023-01-06T04:23:51.960Z,1.80
2023-01-06T04:26:19.106Z,2.30
2023-01-06T04:28:46.277Z,1.90
2023-01-06T04:31:13.403Z,1.75
2023-01-06T04:33:40.475Z,2.05
2023-01-06T04:36:09.210Z,2.20
2023-01-06T04:38:36.705Z,2.38
2023-01-06T04:41:03.860Z,2.30
2023-01-06T04:43:30.904Z,2.70
2023-01-06T04:46:01.690Z,3.35
2023-01-06T04:48:28.769Z,2.22
2023-01-06T04:51:07.477Z,2.85
2023-01-06T04:53:35.746Z,2.53
2023-01-06T04:56:04.533Z,2.92
2023-01-06T04:58:32.700Z,2.42
2023-01-06T05:01:02.094Z,2.40
2023-01-06T05:03:29.276Z,1.92
2023-01-06T05:05:56.426Z,2.28
2023-01-06T05:08:23.526Z,1.77
2023-01-06T05:10:50.590Z,1.90
2023-01-06T05:13:17.576Z,2.10
2023-01-06T05:15:44.657Z,2.25
2023-01-06T05:18:11.664Z,2.90
2023-01-06T05:20:38.642Z,3.45
2023-01-06T05:23:05.750Z,2.88
2023-01-06T05:25:32.806Z,2.40
2023-01-06T05:28:00.431Z,1.92
2023-01-06T05:30:27.756Z,2.47
2023-01-06T05:32:54.709Z,3.20
2023-01-06T05:35:21.747Z,2.78
2023-01-06T05:37:48.787Z,2.58
2023-01-06T05:40:15.954Z,2.05
2023-01-06T05:42:42.958Z,2.40
2023-01-06T05:45:10.954Z,2.13
2023-01-06T05:47:38.031Z,2.25
2023-01-06T05:50:05.628Z,2.30
2023-01-06T05:52:32.691Z,2.60
2023-01-06T05:54:59.680Z,3.25
2023-01-06T05:57:26.719Z,2.45
2023-01-06T05:59:53.782Z,2.80
2023-01-06T06:02:20.998Z,2.55
2023-01-06T06:04:48.540Z,3.00
2023-01-06T06:07:15.562Z,2.70
2023-01-06T06:09:42.615Z,2.90
2023-01-06T06:12:10.021Z,3.63
2023-01-06T06:14:37.114Z,2.83
2023-01-06T06:17:04.123Z,3.05
2023-01-06T06:19:31.199Z,2.95
2023-01-06T06:21:58.230Z,3.60
2023-01-06T06:24:25.233Z,3.78
2023-01-06T06:26:52.295Z,3.03
2023-01-06T06:29:19.286Z,3.17
2023-01-06T06:31:46.407Z,3.85
2023-01-06T06:34:14.249Z,3.60
2023-01-06T06:36:41.334Z,8.50
2023-01-06T06:39:08.372Z,5.47
2023-01-06T06:41:35.414Z,6.95
2023-01-06T06:44:04.104Z,14.90
2023-01-06T06:46:31.733Z,8.77
2023-01-06T06:48:58.763Z,7.93
2023-01-06T06:51:25.792Z,9.38
2023-01-06T06:53:52.983Z,9.55
2023-01-06T06:56:21.676Z,8.20
2023-01-06T06:58:49.256Z,8.77
2023-01-06T07:01:19.574Z,6.65
2023-01-06T07:03:48.322Z,7.70
2023-01-06T07:06:23.181Z,6.13
2023-01-06T07:08:50.856Z,5.05
2023-01-06T07:11:18.626Z,5.00
2023-01-06T07:13:46.316Z,6.13
2023-01-06T07:16:13.628Z,6.38
2023-01-06T07:18:40.759Z,4.70
2023-01-06T07:21:08.622Z,5.38
2023-01-06T07:23:35.641Z,5.50
2023-01-06T07:26:03.275Z,5.35
2023-01-06T07:28:32.063Z,6.10
2023-01-06T07:30:59.684Z,5.78
2023-01-06T07:33:26.953Z,7.22
2023-01-06T07:35:56.197Z,8.27
2023-01-06T07:38:23.648Z,8.40
2023-01-06T07:40:51.257Z,8.82
2023-01-06T07:43:18.336Z,15.25
2023-01-06T07:45:48.135Z,9.80
2023-01-06T07:48:15.611Z,15.15
2023-01-06T07:50:42.651Z,19.70
2023-01-06T07:53:11.038Z,22.08
2023-01-06T07:55:38.113Z,16.65
2023-01-06T07:58:07.421Z,15.40
2023-01-06T08:00:34.654Z,15.95
2023-01-06T08:03:07.467Z,13.77
2023-01-06T08:05:38.653Z,15.15
2023-01-06T08:08:05.717Z,12.82
2023-01-06T08:10:32.865Z,10.65
2023-01-06T08:13:00.025Z,7.72
2023-01-06T08:15:27.267Z,8.02
2023-01-06T08:17:55.223Z,9.00
2023-01-06T08:20:23.133Z,9.18
2023-01-06T08:22:50.334Z,6.22
2023-01-06T08:25:18.712Z,6.47
2023-01-06T08:27:45.811Z,5.68
2023-01-06T08:30:13.052Z,4.70
2023-01-06T08:32:40.126Z,4.20
2023-01-06T08:35:07.433Z,4.45
2023-01-06T08:37:34.551Z,3.90
2023-01-06T08:40:01.603Z,5.60
2023-01-06T08:42:28.694Z,4.53
2023-01-06T08:44:56.559Z,4.10
2023-01-06T08:47:23.841Z,4.22
2023-01-06T08:49:50.884Z,4.97
2023-01-06T08:52:18.067Z,5.15
2023-01-06T08:54:45.046Z,5.25
2023-01-06T08:57:12.130Z,5.47
2023-01-06T08:59:39.164Z,5.10
2023-01-06T09:02:06.879Z,5.28
2023-01-06T09:04:34.370Z,4.25
2023-01-06T09:07:01.480Z,4.32
2023-01-06T09:09:28.511Z,6.80
2023-01-06T09:11:55.670Z,6.10
2023-01-06T09:14:22.680Z,7.18
2023-01-06T09:16:49.798Z,7.95
2023-01-06T09:19:17.051Z,7.47
2023-01-06T09:21:46.279Z,7.38
2023-01-06T09:24:15.114Z,7.55
2023-01-06T09:26:42.438Z,7.57
2023-01-06T09:29:09.497Z,6.35
2023-01-06T09:31:36.793Z,6.40
2023-01-06T09:34:04.191Z,6.93
2023-01-06T09:36:32.788Z,7.72
2023-01-06T09:38:59.876Z,5.95
2023-01-06T09:41:55.250Z,6.70
2023-01-06T09:44:32.744Z,5.82
2023-01-06T09:47:02.860Z,5.90
2023-01-06T09:49:50.603Z,5.85
2023-01-06T09:52:50.278Z,5.10
2023-01-06T09:55:36.453Z,4.15
2023-01-06T09:58:15.459Z,4.68
2023-01-06T10:00:44.040Z,4.15
2023-01-06T10:03:26.176Z,3.80
2023-01-06T10:06:17.243Z,4.38
2023-01-06T10:09:14.175Z,4.72
2023-01-06T10:12:07.729Z,4.05
2023-01-06T10:15:05.443Z,4.32
2023-01-06T10:17:44.769Z,4.90
2023-01-06T10:20:36.728Z,3.92
2023-01-06T10:23:40.839Z,3.15
2023-01-06T10:26:29.170Z,3.20
2023-01-06T10:29:04.130Z,3.10
2023-01-06T10:31:35.265Z,3.17
2023-01-06T10:34:03.707Z,2.50
2023-01-06T10:36:41.164Z,2.42
2023-01-06T10:39:20.380Z,2.75
2023-01-06T10:42:18.369Z,2.97
2023-01-06T10:44:45.600Z,2.53
2023-01-06T10:47:27.882Z,3.10
2023-01-06T10:49:55.249Z,3.20
2023-01-06T10:52:24.471Z,3.05
2023-01-06T10:54:56.725Z,3.30
2023-01-06T10:57:32.413Z,3.97
2023-01-06T11:00:19.103Z,3.88
2023-01-06T11:02:52.469Z,2.95
2023-01-06T11:05:31.903Z,3.25
2023-01-06T11:08:01.977Z,3.10
2023-01-06T11:10:38.849Z,3.03
2023-01-06T11:13:16.921Z,3.15
2023-01-06T11:15:44.741Z,3.22
2023-01-06T11:18:30.158Z,2.63
2023-01-06T11:21:03.303Z,3.08
2023-01-06T11:23:30.406Z,2.85
2023-01-06T11:26:15.754Z,3.10
2023-01-06T11:28:45.812Z,2.83
2023-01-06T11:31:16.142Z,2.80
2023-01-06T11:33:52.146Z,3.95
2023-01-06T11:36:22.679Z,3.15
2023-01-06T11:38:57.094Z,2.45
2023-01-06T11:41:37.697Z,2.78
2023-01-06T11:44:24.096Z,3.22
2023-01-06T11:46:59.525Z,2.35
2023-01-06T11:49:56.026Z,2.75
2023-01-06T11:52:31.487Z,2.25
2023-01-06T11:55:07.749Z,2.28
2023-01-06T11:57:54.337Z,2.40
2023-01-06T12:00:37.266Z,2.30
2023-01-06T12:03:25.475Z,2.53
2023-01-06T12:06:04.901Z,2.25
2023-01-06T12:08:44.199Z,2.45
2023-01-06T12:11:13.575Z,2.20
2023-01-06T12:13:44.910Z,2.63
2023-01-06T12:16:33.901Z,2.47
2023-01-06T12:19:02.118Z,2.50
2023-01-06T12:21:34.899Z,2.60
2023-01-06T12:24:06.469Z,2.55
2023-01-06T12:26:35.583Z,2.70
2023-01-06T12:29:06.910Z,4.75
2023-01-06T12:32:05.261Z,2.88
2023-01-06T12:34:37.035Z,3.40
2023-01-06T12:37:15.020Z,2.53
2023-01-06T12:40:00.038Z,2.40
2023-01-06T12:42:52.375Z,2.90
2023-01-06T12:45:46.599Z,2.60
2023-01-06T12:48:42.330Z,2.58
2023-01-06T12:51:14.780Z,2.50
2023-01-06T12:54:15.197Z,2.53
2023-01-06T12:57:12.807Z,2.90
2023-01-06T12:59:55.839Z,3.25
2023-01-06T13:03:04.814Z,2.78
2023-01-06T13:05:48.389Z,2.85
2023-01-06T13:08:44.442Z,2.67
2023-01-06T13:11:38.183Z,2.40
2023-01-06T13:14:33.028Z,2.10
2023-01-06T13:17:08.229Z,2.40
2023-01-06T13:19:38.294Z,1.85
2023-01-06T13:22:09.340Z,2.13
2023-01-06T13:25:12.259Z,2.20
2023-01-06T13:27:44.032Z,1.60
2023-01-06T13:30:32.687Z,1.85
2023-01-06T13:33:33.541Z,2.38
2023-01-06T13:36:06.549Z,1.83
2023-01-06T13:38:52.300Z,2.95
2023-01-06T13:41:24.838Z,2.80
2023-01-06T13:43:57.736Z,2.50
2023-01-06T13:46:27.407Z,4.32
2023-01-06T13:48:58.862Z,2.67
2023-01-06T13:51:40.919Z,1.95
2023-01-06T13:54:27.942Z,2.08
2023-01-06T13:57:22.869Z,2.30
2023-01-06T14:00:04.902Z,1.95
2023-01-06T14:02:34.849Z,2.30
2023-01-06T14:05:22.176Z,2.70
2023-01-06T14:08:01.691Z,5.15
2023-01-06T14:10:43.871Z,3.63
2023-01-06T14:13:24.857Z,3.90
2023-01-06T14:16:12.868Z,5.00
2023-01-06T14:18:47.332Z,3.55
2023-01-06T14:21:14.285Z,3.58
2023-01-06T14:24:19.489Z,4.28
2023-01-06T14:26:48.197Z,5.88
2023-01-06T14:29:40.793Z,5.63
2023-01-06T14:32:28.748Z,6.80
2023-01-06T14:35:09.194Z,5.90
2023-01-06T14:37:44.018Z,5.55
2023-01-06T14:40:24.697Z,5.63
2023-01-06T14:42:52.861Z,5.13
2023-01-06T14:45:28.484Z,5.40
2023-01-06T14:48:18.227Z,4.97
2023-01-06T14:50:52.206Z,5.40
2023-01-06T14:53:25.457Z,5.25
2023-01-06T14:55:53.630Z,5.35
2023-01-06T14:58:36.999Z,5.00
2023-01-06T15:01:06.511Z,6.28
2023-01-06T15:03:34.970Z,5.65
2023-01-06T15:06:29.293Z,5.97
2023-01-06T15:09:20.293Z,6.68
2023-01-06T15:11:47.503Z,16.05
2023-01-06T15:14:29.977Z,7.72
2023-01-06T15:17:04.356Z,6.05
2023-01-06T15:19:32.278Z,6.28
2023-01-06T15:22:01.177Z,6.10
2023-01-06T15:24:35.696Z,6.65
2023-01-06T15:27:17.624Z,6.25
2023-01-06T15:29:55.910Z,6.80
2023-01-06T15:32:25.973Z,7.45
2023-01-06T15:34:56.775Z,6.75
2023-01-06T15:37:31.346Z,8.48
2023-01-06T15:39:58.603Z,7.53
2023-01-06T15:42:26.460Z,7.13
2023-01-06T15:45:01.414Z,7.00
2023-01-06T15:47:39.889Z,6.70
2023-01-06T15:50:10.004Z,7.40
2023-01-06T15:53:06.476Z,8.30
2023-01-06T15:55:43.107Z,6.80
2023-01-06T15:58:28.210Z,8.52
2023-01-06T16:01:00.212Z,7.28
2023-01-06T16:03:29.929Z,7.35
2023-01-06T16:06:11.144Z,8.20
2023-01-06T16:08:40.408Z,9.30
2023-01-06T16:11:16.324Z,10.07
2023-01-06T16:13:57.361Z,18.25
2023-01-06T16:16:31.473Z,20.35
2023-01-06T16:18:59.705Z,17.38
2023-01-06T16:21:29.656Z,12.20
2023-01-06T16:24:04.253Z,13.95
2023-01-06T16:26:44.736Z,16.65
2023-01-06T16:29:29.594Z,14.13
2023-01-06T16:32:01.040Z,14.10
2023-01-06T16:34:31.621Z,14.98
2023-01-06T16:37:00.592Z,13.45
2023-01-06T16:39:28.334Z,9.70
2023-01-06T16:42:01.517Z,9.80
2023-01-06T16:44:30.260Z,11.10
2023-01-06T16:46:58.289Z,10.15
2023-01-06T16:49:25.834Z,8.63
2023-01-06T16:51:54.820Z,9.43
2023-01-06T16:54:23.620Z,6.90
2023-01-06T16:56:52.530Z,7.13
2023-01-06T16:59:25.048Z,6.60
2023-01-06T17:01:52.210Z,6.85
2023-01-06T17:04:19.419Z,4.65
2023-01-06T17:06:46.469Z,4.90
2023-01-06T17:09:23.292Z,4.88
2023-01-06T17:11:53.906Z,5.13
2023-01-06T17:14:23.752Z,5.38
2023-01-06T17:16:50.965Z,5.53
2023-01-06T17:19:26.974Z,5.47
2023-01-06T17:22:30.305Z,4.88
2023-01-06T17:25:02.016Z,5.90
2023-01-06T17:27:30.497Z,5.68
2023-01-06T17:30:02.313Z,5.03
2023-01-06T17:32:43.757Z,5.90
2023-01-06T17:35:34.539Z,5.43
2023-01-06T17:38:12.189Z,5.28
2023-01-06T17:40:39.391Z,5.47
2023-01-06T17:43:27.207Z,4.22
2023-01-06T17:45:54.492Z,4.55
2023-01-06T17:48:21.860Z,4.72
2023-01-06T17:50:54.996Z,5.90
2023-01-06T17:53:48.286Z,5.35
2023-01-06T17:56:15.958Z,4.05
2023-01-06T17:58:44.893Z,3.65
2023-01-06T18:01:29.182Z,4.07
2023-01-06T18:03:59.612Z,3.42
2023-01-06T18:06:39.239Z,3.92
2023-01-06T18:09:06.293Z,3.83
2023-01-06T18:11:39.875Z,4.13
2023-01-06T18:14:23.663Z,4.70
2023-01-06T18:16:54.654Z,3.75
2023-01-06T18:19:26.156Z,3.75
2023-01-06T18:21:53.686Z,3.65
2023-01-06T18:24:26.607Z,3.50
2023-01-06T18:26:59.428Z,3.20
2023-01-06T18:29:40.518Z,3.55
2023-01-06T18:32:24.437Z,3.22
2023-01-06T18:35:05.679Z,3.50
2023-01-06T18:37:35.948Z,3.60
2023-01-06T18:40:11.353Z,3.70
2023-01-06T18:42:42.166Z,3.88
2023-01-06T18:45:09.274Z,4.47
2023-01-06T18:47:40.536Z,4.18
2023-01-06T18:50:30.504Z,4.93
2023-01-06T18:53:00.353Z,5.43
2023-01-06T18:55:35.727Z,6.05
2023-01-06T18:58:12.108Z,6.00
2023-01-06T19:00:52.745Z,6.00
2023-01-06T19:03:49.236Z,6.35
2023-01-06T19:06:19.311Z,4.50
2023-01-06T19:08:50.218Z,4.00
2023-01-06T19:11:22.438Z,3.97
2023-01-06T19:13:52.424Z,3.78
2023-01-06T19:16:57.630Z,3.55
2023-01-06T19:19:42.634Z,3.50
2023-01-06T19:22:24.302Z,3.83
2023-01-06T19:25:16.129Z,3.80
2023-01-06T19:27:49.619Z,3.45
2023-01-06T19:30:25.663Z,3.17
2023-01-06T19:32:52.747Z,3.42
2023-01-06T19:35:30.412Z,3.20
2023-01-06T19:38:05.055Z,3.22
2023-01-06T19:40:35.985Z,3.90
2023-01-06T19:43:16.318Z,4.30
2023-01-06T19:45:44.676Z,3.45
2023-01-06T19:48:34.088Z,3.20
2023-01-06T19:51:37.092Z,3.80
2023-01-06T19:54:17.015Z,3.80
2023-01-06T19:56:44.246Z,3.85
2023-01-06T19:59:30.969Z,4.15
2023-01-06T20:02:10.314Z,4.82
2023-01-06T20:04:37.844Z,4.30
2023-01-06T20:07:05.488Z,4.13
2023-01-06T20:09:33.892Z,4.10
2023-01-06T20:12:01.366Z,4.97
2023-01-06T20:14:28.371Z,4.75
2023-01-06T20:16:55.951Z,5.07
2023-01-06T20:19:23.081Z,5.40
2023-01-06T20:21:50.636Z,5.15
2023-01-06T20:24:17.776Z,4.30
2023-01-06T20:26:44.915Z,4.40
2023-01-06T20:29:12.236Z,4.95
2023-01-06T20:31:39.676Z,5.20
2023-01-06T20:34:06.908Z,5.75
2023-01-06T20:36:34.292Z,5.20
2023-01-06T20:39:01.916Z,5.13
2023-01-06T20:41:29.292Z,6.13
2023-01-06T20:43:56.947Z,6.57
2023-01-06T20:46:24.056Z,6.55
2023-01-06T20:48:51.228Z,5.63
2023-01-06T20:51:18.262Z,7.70
2023-01-06T20:53:45.834Z,6.75
2023-01-06T20:56:13.489Z,6.40
2023-01-06T20:58:40.773Z,8.23
2023-01-06T21:01:09.057Z,7.65
2023-01-06T21:03:36.335Z,5.80
2023-01-06T21:06:04.079Z,7.47
2023-01-06T21:08:31.170Z,6.22
2023-01-06T21:10:58.409Z,6.38
2023-01-06T21:13:25.548Z,6.38
2023-01-06T21:15:52.610Z,5.60
2023-01-06T21:18:19.652Z,6.07
2023-01-06T21:20:49.465Z,6.43
2023-01-06T21:23:16.796Z,5.90
2023-01-06T21:25:43.871Z,6.30
2023-01-06T21:28:10.935Z,7.00
2023-01-06T21:30:38.003Z,8.85
2023-01-06T21:33:05.035Z,8.43
2023-01-06T21:35:32.202Z,8.65
2023-01-06T21:37:59.251Z,10.05
2023-01-06T21:40:26.342Z,9.00
2023-01-06T21:43:08.496Z,9.35
2023-01-06T21:45:40.522Z,7.53
2023-01-06T21:48:09.340Z,8.57
2023-01-06T21:50:44.248Z,8.50
2023-01-06T21:53:13.033Z,7.35
2023-01-06T21:55:41.649Z,8.32
2023-01-06T21:58:10.599Z,8.15
2023-01-06T22:00:37.699Z,7.85
2023-01-06T22:03:04.965Z,8.38
2023-01-06T22:05:32.011Z,7.63
2023-01-06T22:08:00.136Z,7.47
2023-01-06T22:10:27.472Z,6.97
2023-01-06T22:12:56.690Z,9.48
2023-01-06T22:15:23.839Z,9.75
2023-01-06T22:17:54.507Z,8.98
2023-01-06T22:20:21.625Z,8.90
2023-01-06T22:22:48.728Z,7.35
2023-01-06T22:25:15.895Z,6.90
2023-01-06T22:27:42.918Z,7.40
2023-01-06T22:30:10.416Z,6.35
2023-01-06T22:32:49.158Z,6.13
2023-01-06T22:35:18.133Z,6.43
2023-01-06T22:37:45.799Z,7.70
2023-01-06T22:40:14.987Z,7.88
2023-01-06T22:42:42.637Z,7.00
2023-01-06T22:45:10.755Z,8.40
2023-01-06T22:47:37.805Z,8.38
2023-01-06T22:50:06.020Z,8.43
2023-01-06T22:52:33.287Z,8.48
2023-01-06T22:55:00.325Z,7.95
2023-01-06T22:57:27.489Z,7.50
2023-01-06T22:59:54.613Z,7.53
2023-01-06T23:02:21.902Z,8.10
2023-01-06T23:04:49.329Z,7.30
2023-01-06T23:07:16.661Z,8.00
2023-01-06T23:09:43.731Z,9.10
2023-01-06T23:12:10.821Z,8.40
2023-01-06T23:14:37.884Z,9.45
2023-01-06T23:17:05.512Z,11.52
2023-01-06T23:19:32.550Z,11.32
2023-01-06T23:21:59.553Z,9.55
2023-01-06T23:24:26.720Z,9.82
2023-01-06T23:26:53.802Z,9.55
2023-01-06T23:29:20.852Z,9.48
2023-01-06T23:31:48.020Z,9.93
2023-01-06T23:34:17.701Z,10.07
2023-01-06T23:36:45.342Z,10.65
2023-01-06T23:39:15.421Z,9.70
2023-01-06T23:41:42.482Z,10.00
2023-01-06T23:44:16.462Z,10.50
2023-01-06T23:46:45.076Z,8.98
2023-01-06T23:49:14.492Z,9.93
2023-01-06T23:51:41.619Z,9.30
2023-01-06T23:54:10.299Z,9.00
2023-01-06T23:56:37.958Z,10.18
2023-01-06T23:59:07.449Z,9.65
